sensor_id;sensor_type;location;lat;lon;timestamp;pressure;altitude;pressure_sealevel;temperature;humidity
72857;BME280;62742;52.136;4.500;2023-03-22T00:01:09;100935.66;;;8.59;90.19
72857;BME280;62742;52.136;4.500;2023-03-22T00:03:40;100936.56;;;8.61;90.09
72857;BME280;62742;52.136;4.500;2023-03-22T00:06:06;100931.22;;;8.75;89.78
72857;BME280;62742;52.136;4.500;2023-03-22T00:08:33;100935.53;;;8.84;89.16
72857;BME280;62742;52.136;4.500;2023-03-22T00:11:00;100933.78;;;8.84;89.40
72857;BME280;62742;52.136;4.500;2023-03-22T00:13:27;100929.53;;;8.68;90.56
72857;BME280;62742;52.136;4.500;2023-03-22T00:15:54;100920.66;;;8.84;90.31
72857;BME280;62742;52.136;4.500;2023-03-22T00:18:22;100917.16;;;8.87;90.12
72857;BME280;62742;52.136;4.500;2023-03-22T00:20:49;100917.22;;;8.77;90.20
72857;BME280;62742;52.136;4.500;2023-03-22T00:23:20;100916.25;;;8.92;89.47
72857;BME280;62742;52.136;4.500;2023-03-22T00:25:47;100917.06;;;9.02;89.59
72857;BME280;62742;52.136;4.500;2023-03-22T00:28:13;100916.16;;;9.03;89.40
72857;BME280;62742;52.136;4.500;2023-03-22T00:30:42;100910.09;;;8.95;89.96
72857;BME280;62742;52.136;4.500;2023-03-22T00:33:15;100906.72;;;8.84;90.15
72857;BME280;62742;52.136;4.500;2023-03-22T00:35:47;100895.31;;;8.85;90.56
72857;BME280;62742;52.136;4.500;2023-03-22T00:38:14;100907.53;;;8.90;90.17
72857;BME280;62742;52.136;4.500;2023-03-22T00:40:40;100897.91;;;8.89;89.92
72857;BME280;62742;52.136;4.500;2023-03-22T00:43:06;100900.50;;;8.97;89.24
72857;BME280;62742;52.136;4.500;2023-03-22T00:45:33;100891.88;;;8.79;90.40
72857;BME280;62742;52.136;4.500;2023-03-22T00:48:08;100884.91;;;8.80;91.02
72857;BME280;62742;52.136;4.500;2023-03-22T00:50:37;100877.94;;;8.76;90.53
72857;BME280;62742;52.136;4.500;2023-03-22T00:53:04;100871.81;;;8.78;90.41
72857;BME280;62742;52.136;4.500;2023-03-22T00:55:30;100863.00;;;8.86;90.12
72857;BME280;62742;52.136;4.500;2023-03-22T00:57:57;100862.22;;;8.76;90.06
72857;BME280;62742;52.136;4.500;2023-03-22T01:00:24;100863.94;;;8.82;90.53
72857;BME280;62742;52.136;4.500;2023-03-22T01:02:50;100868.22;;;8.93;89.19
72857;BME280;62742;52.136;4.500;2023-03-22T01:05:24;100863.00;;;8.86;89.76
72857;BME280;62742;52.136;4.500;2023-03-22T01:07:52;100863.84;;;8.91;89.08
72857;BME280;62742;52.136;4.500;2023-03-22T01:10:19;100861.22;;;8.89;89.11
72857;BME280;62742;52.136;4.500;2023-03-22T01:12:46;100855.13;;;8.90;88.93
72857;BME280;62742;52.136;4.500;2023-03-22T01:15:12;100841.13;;;8.90;88.95
72857;BME280;62742;52.136;4.500;2023-03-22T01:17:39;100835.84;;;8.94;87.76
72857;BME280;62742;52.136;4.500;2023-03-22T01:20:05;100837.69;;;8.85;88.08
72857;BME280;62742;52.136;4.500;2023-03-22T01:22:32;100834.34;;;8.64;89.35
72857;BME280;62742;52.136;4.500;2023-03-22T01:24:58;100822.19;;;8.58;89.38
72857;BME280;62742;52.136;4.500;2023-03-22T01:27:25;100818.59;;;8.72;88.30
72857;BME280;62742;52.136;4.500;2023-03-22T01:29:51;100812.63;;;8.56;89.59
72857;BME280;62742;52.136;4.500;2023-03-22T01:32:17;100810.06;;;8.47;89.71
72857;BME280;62742;52.136;4.500;2023-03-22T01:34:43;100814.41;;;8.41;90.56
72857;BME280;62742;52.136;4.500;2023-03-22T01:37:10;100807.50;;;8.36;90.87
72857;BME280;62742;52.136;4.500;2023-03-22T01:39:36;100800.47;;;8.46;90.41
72857;BME280;62742;52.136;4.500;2023-03-22T01:42:03;100792.53;;;8.55;89.59
72857;BME280;62742;52.136;4.500;2023-03-22T01:44:30;100782.03;;;8.61;89.58
72857;BME280;62742;52.136;4.500;2023-03-22T01:46:56;100776.84;;;8.53;89.45
72857;BME280;62742;52.136;4.500;2023-03-22T01:49:30;100770.75;;;8.53;89.94
72857;BME280;62742;52.136;4.500;2023-03-22T01:52:08;100765.38;;;8.68;88.87
72857;BME280;62742;52.136;4.500;2023-03-22T01:54:42;100764.53;;;8.63;89.49
72857;BME280;62742;52.136;4.500;2023-03-22T01:57:12;100761.13;;;8.55;89.91
72857;BME280;62742;52.136;4.500;2023-03-22T01:59:39;100763.72;;;8.55;90.00
72857;BME280;62742;52.136;4.500;2023-03-22T02:02:07;100768.13;;;8.51;90.52
72857;BME280;62742;52.136;4.500;2023-03-22T02:04:36;100765.41;;;8.64;90.02
72857;BME280;62742;52.136;4.500;2023-03-22T02:07:05;100760.97;;;8.72;89.22
72857;BME280;62742;52.136;4.500;2023-03-22T02:09:37;100759.19;;;8.74;89.67
72857;BME280;62742;52.136;4.500;2023-03-22T02:14:47;100752.25;;;8.70;90.25
72857;BME280;62742;52.136;4.500;2023-03-22T02:23:01;100730.81;;;9.16;89.10
72857;BME280;62742;52.136;4.500;2023-03-22T02:25:53;100723.03;;;9.05;89.25
72857;BME280;62742;52.136;4.500;2023-03-22T02:31:16;100718.72;;;9.04;89.46
72857;BME280;62742;52.136;4.500;2023-03-22T02:34:22;100723.00;;;9.11;89.25
72857;BME280;62742;52.136;4.500;2023-03-22T02:40:25;100724.91;;;8.95;89.44
72857;BME280;62742;52.136;4.500;2023-03-22T02:48:28;100711.03;;;8.89;90.89
72857;BME280;62742;52.136;4.500;2023-03-22T02:51:12;100700.34;;;9.06;90.59
72857;BME280;62742;52.136;4.500;2023-03-22T02:53:53;100705.50;;;9.12;90.42
72857;BME280;62742;52.136;4.500;2023-03-22T02:56:30;100694.97;;;9.16;90.53
72857;BME280;62742;52.136;4.500;2023-03-22T02:59:04;100696.59;;;9.27;90.16
72857;BME280;62742;52.136;4.500;2023-03-22T03:01:41;100689.56;;;9.27;90.09
72857;BME280;62742;52.136;4.500;2023-03-22T03:04:15;100702.75;;;9.26;89.71
72857;BME280;62742;52.136;4.500;2023-03-22T03:06:44;100694.00;;;9.24;90.08
72857;BME280;62742;52.136;4.500;2023-03-22T03:09:15;100689.63;;;9.26;90.59
72857;BME280;62742;52.136;4.500;2023-03-22T03:11:44;100690.38;;;9.34;90.18
72857;BME280;62742;52.136;4.500;2023-03-22T03:14:47;100690.16;;;9.49;89.10
72857;BME280;62742;52.136;4.500;2023-03-22T03:25:31;100680.81;;;9.31;89.86
72857;BME280;62742;52.136;4.500;2023-03-22T03:33:34;100670.16;;;9.42;89.28
72857;BME280;62742;52.136;4.500;2023-03-22T03:36:10;100675.53;;;9.33;89.85
72857;BME280;62742;52.136;4.500;2023-03-22T03:38:41;100672.81;;;9.41;89.22
72857;BME280;62742;52.136;4.500;2023-03-22T03:41:13;100664.00;;;9.46;89.63
72857;BME280;62742;52.136;4.500;2023-03-22T03:43:43;100664.94;;;9.39;89.19
72857;BME280;62742;52.136;4.500;2023-03-22T03:46:12;100661.59;;;9.31;89.95
72857;BME280;62742;52.136;4.500;2023-03-22T03:48:40;100669.25;;;9.46;89.27
72857;BME280;62742;52.136;4.500;2023-03-22T03:51:10;100668.47;;;9.38;89.62
72857;BME280;62742;52.136;4.500;2023-03-22T03:53:36;100671.91;;;9.43;89.29
72857;BME280;62742;52.136;4.500;2023-03-22T03:56:03;100673.72;;;9.38;90.19
72857;BME280;62742;52.136;4.500;2023-03-22T03:58:30;100669.19;;;9.48;89.70
72857;BME280;62742;52.136;4.500;2023-03-22T04:00:56;100661.41;;;9.43;89.72
72857;BME280;62742;52.136;4.500;2023-03-22T04:03:23;100666.63;;;9.46;89.15
72857;BME280;62742;52.136;4.500;2023-03-22T04:05:49;100663.09;;;9.47;89.70
72857;BME280;62742;52.136;4.500;2023-03-22T04:08:15;100658.00;;;9.38;90.17
72857;BME280;62742;52.136;4.500;2023-03-22T04:10:42;100653.56;;;9.42;90.11
72857;BME280;62742;52.136;4.500;2023-03-22T04:13:08;100656.25;;;9.35;90.47
72857;BME280;62742;52.136;4.500;2023-03-22T04:15:35;100656.13;;;9.46;89.99
72857;BME280;62742;52.136;4.500;2023-03-22T04:18:01;100651.63;;;9.54;89.91
72857;BME280;62742;52.136;4.500;2023-03-22T04:20:27;100652.56;;;9.50;90.31
72857;BME280;62742;52.136;4.500;2023-03-22T04:22:54;100654.47;;;9.39;90.82
72857;BME280;62742;52.136;4.500;2023-03-22T04:25:22;100649.06;;;9.51;89.59
72857;BME280;62742;52.136;4.500;2023-03-22T04:27:49;100646.44;;;9.51;90.04
72857;BME280;62742;52.136;4.500;2023-03-22T04:30:16;100645.50;;;9.55;90.12
72857;BME280;62742;52.136;4.500;2023-03-22T04:32:47;100642.25;;;9.40;90.62
72857;BME280;62742;52.136;4.500;2023-03-22T04:35:14;100637.84;;;9.40;90.54
72857;BME280;62742;52.136;4.500;2023-03-22T04:37:41;100639.44;;;9.52;90.48
72857;BME280;62742;52.136;4.500;2023-03-22T04:40:08;100635.88;;;9.56;89.42
72857;BME280;62742;52.136;4.500;2023-03-22T04:42:41;100635.00;;;9.55;89.87
72857;BME280;62742;52.136;4.500;2023-03-22T04:45:09;100632.41;;;9.52;90.14
72857;BME280;62742;52.136;4.500;2023-03-22T04:47:36;100630.63;;;9.56;89.32
72857;BME280;62742;52.136;4.500;2023-03-22T04:50:03;100630.50;;;9.65;88.92
72857;BME280;62742;52.136;4.500;2023-03-22T04:52:30;100621.75;;;9.65;89.05
72857;BME280;62742;52.136;4.500;2023-03-22T04:54:56;100617.38;;;9.65;88.97
72857;BME280;62742;52.136;4.500;2023-03-22T04:57:23;100614.63;;;9.71;88.19
72857;BME280;62742;52.136;4.500;2023-03-22T04:59:49;100619.13;;;9.65;88.77
72857;BME280;62742;52.136;4.500;2023-03-22T05:02:15;100625.31;;;9.61;88.95
72857;BME280;62742;52.136;4.500;2023-03-22T05:04:41;100617.47;;;9.58;89.57
72857;BME280;62742;52.136;4.500;2023-03-22T05:07:08;100623.44;;;9.70;88.39
72857;BME280;62742;52.136;4.500;2023-03-22T05:09:35;100611.09;;;9.76;87.53
72857;BME280;62742;52.136;4.500;2023-03-22T05:12:01;100604.19;;;9.68;88.24
72857;BME280;62742;52.136;4.500;2023-03-22T05:14:27;100608.44;;;9.77;87.23
72857;BME280;62742;52.136;4.500;2023-03-22T05:16:53;100603.28;;;9.72;87.52
72857;BME280;62742;52.136;4.500;2023-03-22T05:19:19;100611.13;;;9.72;86.86
72857;BME280;62742;52.136;4.500;2023-03-22T05:21:47;100603.94;;;9.84;86.70
72857;BME280;62742;52.136;4.500;2023-03-22T05:24:13;100602.19;;;9.86;86.67
72857;BME280;62742;52.136;4.500;2023-03-22T05:26:40;100599.66;;;9.80;86.19
72857;BME280;62742;52.136;4.500;2023-03-22T05:29:07;100595.28;;;9.79;86.30
72857;BME280;62742;52.136;4.500;2023-03-22T05:31:35;100599.63;;;9.81;86.31
72857;BME280;62742;52.136;4.500;2023-03-22T05:34:02;100592.78;;;9.71;86.10
72857;BME280;62742;52.136;4.500;2023-03-22T05:36:28;100587.34;;;9.83;85.21
72857;BME280;62742;52.136;4.500;2023-03-22T05:38:55;100585.03;;;9.63;86.67
72857;BME280;62742;52.136;4.500;2023-03-22T05:41:21;100578.91;;;9.64;86.62
72857;BME280;62742;52.136;4.500;2023-03-22T05:43:47;100592.78;;;9.71;86.07
72857;BME280;62742;52.136;4.500;2023-03-22T05:46:15;100578.88;;;9.66;85.74
72857;BME280;62742;52.136;4.500;2023-03-22T05:48:41;100584.09;;;9.69;86.14
72857;BME280;62742;52.136;4.500;2023-03-22T05:51:08;100582.34;;;9.68;85.71
72857;BME280;62742;52.136;4.500;2023-03-22T05:53:38;100578.59;;;9.84;84.38
72857;BME280;62742;52.136;4.500;2023-03-22T05:56:04;100578.81;;;9.72;84.55
72857;BME280;62742;52.136;4.500;2023-03-22T05:58:34;100586.72;;;9.67;85.06
72857;BME280;62742;52.136;4.500;2023-03-22T06:01:04;100580.63;;;9.67;85.34
72857;BME280;62742;52.136;4.500;2023-03-22T06:03:38;100583.81;;;9.86;84.43
72857;BME280;62742;52.136;4.500;2023-03-22T06:06:04;100584.75;;;9.82;84.25
72857;BME280;62742;52.136;4.500;2023-03-22T06:08:32;100573.13;;;9.97;83.85
72857;BME280;62742;52.136;4.500;2023-03-22T06:10:58;100584.63;;;9.89;83.79
72857;BME280;62742;52.136;4.500;2023-03-22T06:13:25;100574.69;;;10.07;83.04
72857;BME280;62742;52.136;4.500;2023-03-22T06:15:51;100572.28;;;9.95;83.76
72857;BME280;62742;52.136;4.500;2023-03-22T06:18:17;100578.47;;;9.90;83.89
72857;BME280;62742;52.136;4.500;2023-03-22T06:20:43;100576.75;;;9.89;84.63
72857;BME280;62742;52.136;4.500;2023-03-22T06:23:09;100579.97;;;10.04;83.16
72857;BME280;62742;52.136;4.500;2023-03-22T06:25:35;100577.34;;;10.05;83.50
72857;BME280;62742;52.136;4.500;2023-03-22T06:28:02;100573.91;;;10.02;84.03
72857;BME280;62742;52.136;4.500;2023-03-22T06:30:28;100574.75;;;10.04;83.14
72857;BME280;62742;52.136;4.500;2023-03-22T06:32:55;100579.97;;;10.04;83.66
72857;BME280;62742;52.136;4.500;2023-03-22T06:35:28;100572.94;;;10.06;83.89
72857;BME280;62742;52.136;4.500;2023-03-22T06:37:54;100574.69;;;10.07;83.33
72857;BME280;62742;52.136;4.500;2023-03-22T06:40:20;100571.31;;;9.99;84.13
72857;BME280;62742;52.136;4.500;2023-03-22T06:42:46;100573.63;;;10.17;83.20
72857;BME280;62742;52.136;4.500;2023-03-22T06:45:13;100572.91;;;10.09;83.85
72857;BME280;62742;52.136;4.500;2023-03-22T06:47:41;100573.91;;;10.02;84.30
72857;BME280;62742;52.136;4.500;2023-03-22T06:50:08;100572.00;;;10.10;83.83
72857;BME280;62742;52.136;4.500;2023-03-22T06:52:35;100567.41;;;10.21;84.06
72857;BME280;62742;52.136;4.500;2023-03-22T06:55:01;100576.84;;;10.33;83.05
72857;BME280;62742;52.136;4.500;2023-03-22T06:57:28;100568.06;;;10.36;83.55
72857;BME280;62742;52.136;4.500;2023-03-22T06:59:54;100570.44;;;10.48;82.54
72857;BME280;62742;52.136;4.500;2023-03-22T07:02:20;100568.53;;;10.56;81.91
72857;BME280;62742;52.136;4.500;2023-03-22T07:04:46;100567.00;;;10.46;82.01
72857;BME280;62742;52.136;4.500;2023-03-22T07:07:13;100557.97;;;10.59;82.48
72857;BME280;62742;52.136;4.500;2023-03-22T07:09:39;100570.28;;;10.57;82.07
72857;BME280;62742;52.136;4.500;2023-03-22T07:12:05;100560.56;;;10.61;81.39
72857;BME280;62742;52.136;4.500;2023-03-22T07:14:32;100568.59;;;10.53;81.91
72857;BME280;62742;52.136;4.500;2023-03-22T07:16:59;100559.13;;;10.44;82.60
72857;BME280;62742;52.136;4.500;2023-03-22T07:19:26;100569.72;;;10.40;83.24
72857;BME280;62742;52.136;4.500;2023-03-22T07:21:52;100568.69;;;10.48;82.41
72857;BME280;62742;52.136;4.500;2023-03-22T07:24:19;100573.03;;;10.51;82.44
72857;BME280;62742;52.136;4.500;2023-03-22T07:26:45;100559.84;;;10.54;82.13
72857;BME280;62742;52.136;4.500;2023-03-22T07:29:11;100570.31;;;10.56;82.17
72857;BME280;62742;52.136;4.500;2023-03-22T07:31:37;100563.41;;;10.50;82.51
72857;BME280;62742;52.136;4.500;2023-03-22T07:34:05;100574.72;;;10.54;82.91
72857;BME280;62742;52.136;4.500;2023-03-22T07:36:31;100566.69;;;10.61;81.76
72857;BME280;62742;52.136;4.500;2023-03-22T07:38:58;100565.53;;;10.75;82.23
72857;BME280;62742;52.136;4.500;2023-03-22T07:41:24;100579.09;;;10.53;81.49
72857;BME280;62742;52.136;4.500;2023-03-22T07:43:52;100561.38;;;10.64;82.25
72857;BME280;62742;52.136;4.500;2023-03-22T07:46:18;100576.34;;;10.61;82.71
72857;BME280;62742;52.136;4.500;2023-03-22T07:48:44;100577.31;;;10.55;82.59
72857;BME280;62742;52.136;4.500;2023-03-22T07:51:11;100580.88;;;10.53;82.39
72857;BME280;62742;52.136;4.500;2023-03-22T07:53:37;100571.13;;;10.59;82.86
72857;BME280;62742;52.136;4.500;2023-03-22T07:56:03;100571.94;;;10.61;82.25
72857;BME280;62742;52.136;4.500;2023-03-22T07:58:30;100565.75;;;10.64;82.73
72857;BME280;62742;52.136;4.500;2023-03-22T08:00:56;100552.72;;;10.59;82.91
72857;BME280;62742;52.136;4.500;2023-03-22T08:03:25;100564.13;;;10.58;83.12
72857;BME280;62742;52.136;4.500;2023-03-22T08:05:51;100573.00;;;10.53;83.53
72857;BME280;62742;52.136;4.500;2023-03-22T08:08:17;100572.91;;;10.57;83.85
72857;BME280;62742;52.136;4.500;2023-03-22T08:10:47;100577.31;;;10.55;84.16
72857;BME280;62742;52.136;4.500;2023-03-22T08:13:14;100579.16;;;10.50;85.15
72857;BME280;62742;52.136;4.500;2023-03-22T08:15:40;100585.50;;;10.38;85.88
72857;BME280;62742;52.136;4.500;2023-03-22T08:18:07;100574.19;;;10.35;86.37
72857;BME280;62742;52.136;4.500;2023-03-22T08:20:34;100586.44;;;10.36;87.24
72857;BME280;62742;52.136;4.500;2023-03-22T08:23:00;100574.38;;;10.24;88.22
72857;BME280;62742;52.136;4.500;2023-03-22T08:25:26;100578.66;;;10.29;88.13
72857;BME280;62742;52.136;4.500;2023-03-22T08:27:54;100580.53;;;10.21;88.97
72857;BME280;62742;52.136;4.500;2023-03-22T08:30:20;100571.69;;;10.27;89.38
72857;BME280;62742;52.136;4.500;2023-03-22T08:32:47;100575.13;;;10.30;89.41
72857;BME280;62742;52.136;4.500;2023-03-22T08:35:13;100565.06;;;10.06;90.27
72857;BME280;62742;52.136;4.500;2023-03-22T08:37:39;100571.94;;;10.15;90.45
72857;BME280;62742;52.136;4.500;2023-03-22T08:40:07;100557.00;;;10.18;89.57
72857;BME280;62742;52.136;4.500;2023-03-22T08:42:34;100563.97;;;10.18;89.82
72857;BME280;62742;52.136;4.500;2023-03-22T08:45:01;100563.81;;;10.28;89.01
72857;BME280;62742;52.136;4.500;2023-03-22T08:47:28;100558.56;;;10.28;88.33
72857;BME280;62742;52.136;4.500;2023-03-22T08:49:55;100560.19;;;10.36;89.21
72857;BME280;62742;52.136;4.500;2023-03-22T08:52:21;100563.59;;;10.41;89.83
72857;BME280;62742;52.136;4.500;2023-03-22T08:54:47;100568.13;;;10.29;89.18
72857;BME280;62742;52.136;4.500;2023-03-22T08:57:16;100573.66;;;10.16;90.24
72857;BME280;62742;52.136;4.500;2023-03-22T08:59:42;100561.31;;;10.21;89.78
72857;BME280;62742;52.136;4.500;2023-03-22T09:02:08;100566.59;;;10.18;89.82
72857;BME280;62742;52.136;4.500;2023-03-22T09:04:34;100552.53;;;10.23;90.02
72857;BME280;62742;52.136;4.500;2023-03-22T09:07:01;100563.22;;;10.11;91.15
72857;BME280;62742;52.136;4.500;2023-03-22T09:09:27;100565.03;;;10.09;91.03
72857;BME280;62742;52.136;4.500;2023-03-22T09:11:53;100566.03;;;10.02;90.77
72857;BME280;62742;52.136;4.500;2023-03-22T09:14:20;100568.81;;;9.94;91.53
72857;BME280;62742;52.136;4.500;2023-03-22T09:16:47;100560.59;;;10.11;90.45
72857;BME280;62742;52.136;4.500;2023-03-22T09:19:13;100569.22;;;10.19;91.13
72857;BME280;62742;52.136;4.500;2023-03-22T09:21:39;100564.91;;;10.15;91.47
72857;BME280;62742;52.136;4.500;2023-03-22T09:24:06;100567.41;;;10.21;91.38
72857;BME280;62742;52.136;4.500;2023-03-22T09:26:33;100572.63;;;10.23;90.93
72857;BME280;62742;52.136;4.500;2023-03-22T09:28:59;100567.41;;;10.21;92.20
72857;BME280;62742;52.136;4.500;2023-03-22T09:31:25;100562.28;;;10.17;92.05
72857;BME280;62742;52.136;4.500;2023-03-22T09:33:52;100559.50;;;10.23;91.61
72857;BME280;62742;52.136;4.500;2023-03-22T09:36:18;100560.56;;;10.14;91.83
72857;BME280;62742;52.136;4.500;2023-03-22T09:38:45;100570.03;;;10.21;91.41
72857;BME280;62742;52.136;4.500;2023-03-22T09:41:28;100559.47;;;10.26;91.45
72857;BME280;62742;52.136;4.500;2023-03-22T09:44:36;100566.84;;;10.05;92.59
72857;BME280;62742;52.136;4.500;2023-03-22T09:47:06;100561.31;;;10.21;92.50
72857;BME280;62742;52.136;4.500;2023-03-22T09:49:46;100564.00;;;10.16;92.37
72857;BME280;62742;52.136;4.500;2023-03-22T09:52:15;100569.16;;;10.22;92.08
72857;BME280;62742;52.136;4.500;2023-03-22T09:54:43;100566.56;;;10.21;92.55
72857;BME280;62742;52.136;4.500;2023-03-22T10:05:35;100580.53;;;10.21;92.88
72857;BME280;62742;52.136;4.500;2023-03-22T10:11:01;100582.50;;;10.11;93.71
72857;BME280;62742;52.136;4.500;2023-03-22T10:13:46;100571.56;;;10.35;92.73
72857;BME280;62742;52.136;4.500;2023-03-22T10:16:26;100567.31;;;10.27;93.07
72857;BME280;62742;52.136;4.500;2023-03-22T10:19:03;100560.25;;;10.29;93.34
72857;BME280;62742;52.136;4.500;2023-03-22T10:21:37;100560.97;;;10.41;92.40
72857;BME280;62742;52.136;4.500;2023-03-22T10:24:12;100547.84;;;10.41;92.94
72857;BME280;62742;52.136;4.500;2023-03-22T10:26:46;100546.22;;;10.34;93.42
72857;BME280;62742;52.136;4.500;2023-03-22T10:29:31;100527.56;;;10.47;92.48
72857;BME280;62742;52.136;4.500;2023-03-22T10:32:13;100534.31;;;10.59;92.38
72857;BME280;62742;52.136;4.500;2023-03-22T10:34:41;100542.06;;;10.65;92.72
72857;BME280;62742;52.136;4.500;2023-03-22T10:37:13;100542.03;;;10.67;92.65
72857;BME280;62742;52.136;4.500;2023-03-22T10:39:47;100549.84;;;10.72;94.27
72857;BME280;62742;52.136;4.500;2023-03-22T10:42:27;100533.06;;;10.77;91.55
72857;BME280;62742;52.136;4.500;2023-03-22T10:45:03;100547.66;;;10.91;91.06
72857;BME280;62742;52.136;4.500;2023-03-22T10:50:46;100531.38;;;10.75;90.30
72857;BME280;62742;52.136;4.500;2023-03-22T10:56:04;100516.91;;;10.94;90.10
72857;BME280;62742;52.136;4.500;2023-03-22T10:58:36;100518.44;;;11.04;90.55
72857;BME280;62742;52.136;4.500;2023-03-22T11:01:09;100523.50;;;11.14;91.36
72857;BME280;62742;52.136;4.500;2023-03-22T11:03:39;100530.47;;;11.15;89.53
72857;BME280;62742;52.136;4.500;2023-03-22T11:08:59;100537.94;;;11.33;89.79
72857;BME280;62742;52.136;4.500;2023-03-22T11:11:35;100553.84;;;11.27;88.37
72857;BME280;62742;52.136;4.500;2023-03-22T11:14:13;100559.00;;;11.32;88.82
72857;BME280;62742;52.136;4.500;2023-03-22T11:19:35;100576.56;;;10.92;90.24
72857;BME280;62742;52.136;4.500;2023-03-22T11:22:06;100583.56;;;10.93;90.13
72857;BME280;62742;52.136;4.500;2023-03-22T11:24:50;100579.34;;;10.84;88.34
72857;BME280;62742;52.136;4.500;2023-03-22T11:27:18;100587.94;;;10.93;88.71
72857;BME280;62742;52.136;4.500;2023-03-22T11:35:15;100579.94;;;10.97;89.59
72857;BME280;62742;52.136;4.500;2023-03-22T11:40:32;100573.69;;;11.03;88.34
72857;BME280;62742;52.136;4.500;2023-03-22T11:43:05;100570.13;;;11.06;88.95
72857;BME280;62742;52.136;4.500;2023-03-22T11:45:40;100576.25;;;11.06;89.22
72857;BME280;62742;52.136;4.500;2023-03-22T11:48:08;100578.09;;;11.02;88.65
72857;BME280;62742;52.136;4.500;2023-03-22T11:50:41;100577.88;;;11.12;88.67
72857;BME280;62742;52.136;4.500;2023-03-22T11:53:14;100572.72;;;11.09;89.28
72857;BME280;62742;52.136;4.500;2023-03-22T11:55:43;100577.81;;;11.15;88.60
72857;BME280;62742;52.136;4.500;2023-03-22T12:01:23;100578.13;;;11.01;88.26
72857;BME280;62742;52.136;4.500;2023-03-22T12:03:59;100576.69;;;10.84;90.25
72857;BME280;62742;52.136;4.500;2023-03-22T12:06:28;100577.88;;;11.12;88.81
72857;BME280;62742;52.136;4.500;2023-03-22T12:09:05;100580.59;;;11.09;89.55
72857;BME280;62742;52.136;4.500;2023-03-22T12:11:35;100569.81;;;11.19;88.07
72857;BME280;62742;52.136;4.500;2023-03-22T12:14:16;100570.00;;;11.10;88.22
72857;BME280;62742;52.136;4.500;2023-03-22T12:16:49;100563.50;;;11.28;88.39
72857;BME280;62742;52.136;4.500;2023-03-22T12:21:55;100563.47;;;11.30;88.74
72857;BME280;62742;52.136;4.500;2023-03-22T12:24:28;100559.97;;;11.29;87.92
72857;BME280;62742;52.136;4.500;2023-03-22T12:26:57;100556.28;;;11.36;87.56
72857;BME280;62742;52.136;4.500;2023-03-22T12:29:27;100556.41;;;11.30;88.50
72857;BME280;62742;52.136;4.500;2023-03-22T12:32:01;100560.88;;;11.27;88.90
72857;BME280;62742;52.136;4.500;2023-03-22T12:34:38;100549.09;;;11.45;87.28
72857;BME280;62742;52.136;4.500;2023-03-22T12:37:21;100546.41;;;11.46;87.61
72857;BME280;62742;52.136;4.500;2023-03-22T12:39:55;100552.38;;;11.53;86.52
72857;BME280;62742;52.136;4.500;2023-03-22T12:42:27;100540.06;;;11.55;86.48
72857;BME280;62742;52.136;4.500;2023-03-22T12:45:01;100556.78;;;11.52;86.82
72857;BME280;62742;52.136;4.500;2023-03-22T12:47:42;100561.16;;;11.53;86.20
72857;BME280;62742;52.136;4.500;2023-03-22T12:50:15;100559.31;;;11.57;86.79
72857;BME280;62742;52.136;4.500;2023-03-22T12:52:48;100562.25;;;11.45;88.43
72857;BME280;62742;52.136;4.500;2023-03-22T12:55:34;100554.03;;;11.57;87.66
72857;BME280;62742;52.136;4.500;2023-03-22T12:58:04;100559.06;;;11.66;86.66
72857;BME280;62742;52.136;4.500;2023-03-22T13:03:04;100560.94;;;11.61;86.47
72857;BME280;62742;52.136;4.500;2023-03-22T13:05:43;100564.63;;;11.54;86.91
72857;BME280;62742;52.136;4.500;2023-03-22T13:08:11;100567.13;;;11.60;87.19
72857;BME280;62742;52.136;4.500;2023-03-22T13:10:46;100570.66;;;11.59;86.84
72857;BME280;62742;52.136;4.500;2023-03-22T13:24:19;100541.78;;;11.92;86.29
72857;BME280;62742;52.136;4.500;2023-03-22T13:26:37;100543.25;;;12.02;86.56
72857;BME280;62742;52.136;4.500;2023-03-22T13:29:14;100551.34;;;11.96;86.24
72857;BME280;62742;52.136;4.500;2023-03-22T13:31:43;100547.72;;;12.00;85.67
72857;BME280;62742;52.136;4.500;2023-03-22T13:34:19;100545.13;;;11.98;86.64
72857;BME280;62742;52.136;4.500;2023-03-22T13:37:07;100539.59;;;12.09;86.50
72857;BME280;62742;52.136;4.500;2023-03-22T13:39:35;100534.47;;;12.03;87.27
72857;BME280;62742;52.136;4.500;2023-03-22T13:44:41;100529.78;;;12.14;86.12
72857;BME280;62742;52.136;4.500;2023-03-22T13:50:03;100533.28;;;12.15;85.77
72857;BME280;62742;52.136;4.500;2023-03-22T13:52:40;100528.78;;;12.19;86.36
72857;BME280;62742;52.136;4.500;2023-03-22T13:58:02;100516.69;;;12.11;86.98
72857;BME280;62742;52.136;4.500;2023-03-22T14:02:59;100506.91;;;12.16;85.41
72857;BME280;62742;52.136;4.500;2023-03-22T14:05:31;100506.47;;;12.32;85.34
72857;BME280;62742;52.136;4.500;2023-03-22T14:08:01;100512.25;;;12.13;86.47
72857;BME280;62742;52.136;4.500;2023-03-22T14:15:56;100497.19;;;12.19;85.62
72857;BME280;62742;52.136;4.500;2023-03-22T14:18:29;100493.47;;;12.26;85.88
72857;BME280;62742;52.136;4.500;2023-03-22T14:20:58;100490.13;;;12.19;86.00
72857;BME280;62742;52.136;4.500;2023-03-22T14:23:38;100483.84;;;12.25;86.07
72857;BME280;62742;52.136;4.500;2023-03-22T14:26:14;100494.28;;;12.28;85.47
72857;BME280;62742;52.136;4.500;2023-03-22T14:28:48;100496.09;;;12.26;85.84
72857;BME280;62742;52.136;4.500;2023-03-22T14:31:25;100490.06;;;12.22;86.13
72857;BME280;62742;52.136;4.500;2023-03-22T14:33:54;100477.72;;;12.23;86.33
72857;BME280;62742;52.136;4.500;2023-03-22T14:36:26;100489.53;;;12.09;86.74
72857;BME280;62742;52.136;4.500;2023-03-22T14:38:56;100483.34;;;12.10;87.98
72857;BME280;62742;52.136;4.500;2023-03-22T14:41:36;100483.84;;;12.25;87.45
72857;BME280;62742;52.136;4.500;2023-03-22T14:44:20;100489.94;;;12.27;88.17
72857;BME280;62742;52.136;4.500;2023-03-22T14:46:47;100492.47;;;12.30;88.40
72857;BME280;62742;52.136;4.500;2023-03-22T14:49:17;100491.19;;;12.43;87.14